Terminal Aerodrome Forecast
Issued by NWS

Home | Current Version | Previous Version | Text Only | Print | Product List | Glossary On
Versions: 1 2 3 4 5 6 7 8 9 10 11 12 13 14 15 16 17 18 19 20 21
000
FTUS43 KIND 211737
TAFLAF
TAF
KLAF 211737Z 2118/2218 22004KT P6SM VCSH OVC090
     FM220500 20004KT 6SM BR SCT050
     FM220600 20004KT 4SM BR SCT040
     FM221200 VRB03KT 1 1/2SM BR SCT015
     FM221400 21004KT 3SM BR SCT010
     FM221700 21007KT 6SM BR SCT045=

USA.gov is the U.S. government's official web portal to all federal, state and local government web resources and services.